Terminal Aerodrome Forecast
Issued by NWS Wilmington, OH

Current Version | Previous Version | Graphics & Text | Print | Product List | Glossary On
Versions: 1 2 3 4 5 6 7 8 9 10 11 12 13 14 15 16 17 18 19 20 21 22 23 24 25
000
FTUS41 KILN 282000 AAA
TAFCVG
TAF AMD
KCVG 282057Z 2821/2924 33006KT P6SM SKC
     FM290100 VRB03KT P6SM SKC
     FM291300 17012KT P6SM BKN200
     FM291700 18012G22KT P6SM BKN150
     FM292300 19010KT P6SM -RA OVC050=

USA.gov is the U.S. government's official web portal to all federal, state and local government web resources and services.